Weather at George Bush Intercontinental Houston Airport

Public forecast

Using degrees Fahrenheit for public forecast. Weather courtesy of forecast.io.

Current aviation weather report (METAR) for George Bush Intercontinental Houston Airport

Retrieved 2022/05/23 08:53 UTC (14 minutes ago):

KIAH 230853Z 05008KT 7SM BKN010 21/19 A3001 RMK AO2 SLP163 T02110194 58017

Aviation forecast (TAF) for George Bush Intercontinental Houston Airport

Retrieved 2022/05/23 06:22 UTC (3 hours ago):

TAF KIAH 230520Z 2306/2412 02005KT P6SM FEW025 TEMPO 2310/2314 BKN020 FM231500 07007KT P6SM SCT030 FM231800 11008KT P6SM SCT040 FM240900 14007KT P6SM VCSH SCT025 BKN040